地図

経路データ

SID SEASON NUMBER BASIN SUBBASIN NAME ISO_TIME NATURE LAT LON WMO_WIND WMO_PRES WMO_AGENCY TRACK_TYPE DIST2LAND LANDFALL IFLAG USA_AGENCY USA_ATCF_ID USA_LAT USA_LON USA_RECORD USA_STATUS USA_WIND USA_PRES USA_SSHS USA_R34_NE USA_R34_SE USA_R34_SW USA_R34_NW USA_R50_NE USA_R50_SE USA_R50_SW USA_R50_NW USA_R64_NE USA_R64_SE USA_R64_SW USA_R64_NW USA_POCI USA_ROCI USA_RMW USA_EYE TOKYO_LAT TOKYO_LON TOKYO_GRADE TOKYO_WIND TOKYO_PRES TOKYO_R50_DIR TOKYO_R50_LONG TOKYO_R50_SHORT TOKYO_R30_DIR TOKYO_R30_LONG TOKYO_R30_SHORT TOKYO_LAND CMA_LAT CMA_LON CMA_CAT CMA_WIND CMA_PRES HKO_LAT HKO_LON HKO_CAT HKO_WIND HKO_PRES NEWDELHI_LAT NEWDELHI_LON NEWDELHI_GRADE NEWDELHI_WIND NEWDELHI_PRES NEWDELHI_CI NEWDELHI_DP NEWDELHI_POCI REUNION_LAT REUNION_LON REUNION_TYPE REUNION_WIND REUNION_PRES REUNION_TNUM REUNION_CI REUNION_RMW REUNION_R34_NE REUNION_R34_SE REUNION_R34_SW REUNION_R34_NW REUNION_R50_NE REUNION_R50_SE REUNION_R50_SW REUNION_R50_NW REUNION_R64_NE REUNION_R64_SE REUNION_R64_SW REUNION_R64_NW BOM_LAT BOM_LON BOM_TYPE BOM_WIND BOM_PRES BOM_TNUM BOM_CI BOM_RMW BOM_R34_NE BOM_R34_SE BOM_R34_SW BOM_R34_NW BOM_R50_NE BOM_R50_SE BOM_R50_SW BOM_R50_NW BOM_R64_NE BOM_R64_SE BOM_R64_SW BOM_R64_NW BOM_ROCI BOM_POCI BOM_EYE BOM_POS_METHOD BOM_PRES_METHOD NADI_LAT NADI_LON NADI_CAT NADI_WIND NADI_PRES WELLINGTON_LAT WELLINGTON_LON WELLINGTON_WIND WELLINGTON_PRES DS824_LAT DS824_LON DS824_STAGE DS824_WIND DS824_PRES TD9636_LAT TD9636_LON TD9636_STAGE TD9636_WIND TD9636_PRES TD9635_LAT TD9635_LON TD9635_WIND TD9635_PRES TD9635_ROCI NEUMANN_LAT NEUMANN_LON NEUMANN_CLASS NEUMANN_WIND NEUMANN_PRES MLC_LAT MLC_LON MLC_CLASS MLC_WIND MLC_PRES USA_GUST BOM_GUST BOM_GUST_PER REUNION_GUST REUNION_GUST_PER USA_SEAHGT USA_SEARAD_NE USA_SEARAD_SE USA_SEARAD_SW USA_SEARAD_NW STORM_SPEED STORM_DIR
1961356S16149 1962 126 SP EA NOT_NAMED 1961-12-22 11:00:00 NR -15.9000 148.900 main 342 327 __________O___ -1 -15.9000 148.900 1 8 213
1961356S16149 1962 126 SP EA NOT_NAMED 1961-12-22 12:00:00 TS -16.0045 148.829 main 327 302 O________OP___ jtwc_sh SH041962 -16.0000 148.800 -1 -16.0000 148.800 TC -16.0090 148.857 1 7 203
1961356S16149 1962 126 SP EA NOT_NAMED 1961-12-22 15:00:00 TS -16.3482 148.698 main 302 280 P________PP___ SH041962 -16.3550 148.668 -1 -16.3550 148.668 TC -16.3391 148.739 1 7 197
1961356S16149 1962 126 SP EA NOT_NAMED 1961-12-22 17:00:00 TS -16.5891 148.645 1001 bom main 280 277 P_____O__PP___ SH041962 -16.5868 148.611 -1 -16.7000 148.700 1001 -16.5868 148.611 TC -16.5650 148.681 1 7 185
1961356S16149 1962 126 SP EA NOT_NAMED 1961-12-22 18:00:00 TS -16.7137 148.654 main 287 279 O_____P__OP_O_ jtwc_sh SH041962 -16.7000 148.600 -1 -16.7978 148.710 1000 -16.7000 148.600 TC -16.6808 148.661 1 -16.7000 148.900 TC 25 1001 7 174
1961356S16149 1962 126 SP EA NOT_NAMED 1961-12-22 21:00:00 TS -17.0478 148.709 main 279 276 P_____P__PP_P_ SH041962 -17.0350 148.648 -1 -17.0950 148.752 1000 -17.0350 148.648 TC -17.0429 148.652 1 -16.9900 148.923 TC 27 1000 7 167
1961356S16149 1962 126 SP EA NOT_NAMED 1961-12-22 23:00:00 TS -17.2748 148.790 1000 bom main 277 268 P_____O__PO_P_ SH041962 -17.2719 148.739 -1 -17.3000 148.800 1000 -17.2719 148.739 TC -17.3000 148.700 1 -17.1932 148.965 TC 29 1000 7 159
1961356S16149 1962 126 SP EA NOT_NAMED 1961-12-23 00:00:00 TS -17.3899 148.846 main 268 245 O_____P__OP_O_ jtwc_sh SH041962 -17.4000 148.800 -1 -17.4056 148.833 1000 -17.4000 148.800 TC -17.4341 148.743 1 -17.3000 149.000 TC 30 1000 8 155
1961356S16149 1962 126 SP EA NOT_NAMED 1961-12-23 03:00:00 TS -17.7728 149.030 main 245 232 P_____P__PP_P_ SH041962 -17.8425 149.020 -1 -17.7353 148.973 1000 -17.8425 149.020 TC -17.8539 148.942 1 -17.6425 149.170 TC 30 1000 9 152
1961356S16149 1962 126 SP EA NOT_NAMED 1961-12-23 06:00:00 TS -18.1716 149.279 main 227 209 O_____P__OP_O_ jtwc_sh SH041962 -18.3000 149.300 -1 -18.0833 149.182 1000 -18.3000 149.300 TC -18.2878 149.223 1 -18.0000 149.400 TC 30 1000 9 147
1961356S16149 1962 126 SP EA NOT_NAMED 1961-12-23 09:00:00 TS -18.5572 149.558 main 207 192 P_____P__PP_P_ SH041962 -18.7074 149.585 -1 -18.4481 149.465 1000 -18.7074 149.585 TC -18.7202 149.560 1 -18.3423 149.605 TC 30 1000 10 144
1961356S16149 1962 126 SP EA NOT_NAMED 1961-12-23 11:00:00 TS -18.8143 149.774 1000 bom main 197 188 P_____O__PO_P_ SH041962 -18.9693 149.792 -1 -18.7000 149.700 1000 4 -18.9693 149.792 TC -19.0000 149.800 1 -18.5775 149.786 TC 30 1000 10 141
1961356S16149 1962 126 SP EA NOT_NAMED 1961-12-23 12:00:00 TS -18.9388 149.888 main 194 183 O_____P__OP_O_ jtwc_sh SH041962 -19.1000 149.900 -1 -18.8026 149.832 1000 -19.1000 149.900 TC -19.1302 149.898 1 -18.7000 149.900 TC 30 1000 10 137
1961356S16149 1962 126 SP EA NOT_NAMED 1961-12-23 15:00:00 TS -19.3192 150.271 main 192 186 P_____P__PP_P_ SH041962 -19.5074 150.228 -1 -19.1113 150.291 1000 -19.5074 150.228 TC -19.5094 150.210 1 -19.0926 150.362 TC 30 1000 11 135
1961356S16149 1962 126 SP EA NOT_NAMED 1961-12-23 18:00:00 TS -19.7067 150.710 main 208 208 O_____P__OP_O_ jtwc_sh SH041962 -19.9000 150.600 -1 -19.4640 150.810 1000 -19.9000 150.600 TC -19.8790 150.563 1 -19.5000 150.900 TC 30 1000 12 132
1961356S16149 1962 126 SP EA NOT_NAMED 1961-12-23 21:00:00 TS -20.0946 151.175 main 236 236 P_____P__PP_P_ SH041962 -20.2497 151.005 -1 -19.9160 151.349 1000 -20.2497 151.005 TC -20.2487 150.978 1 -19.8697 151.386 TC 30 1000 12 132
1961356S16149 1962 126 SP EA NOT_NAMED 1961-12-23 23:00:00 TS -20.3741 151.512 1000 bom main 238 231 P_____O__PO_P_ SH041962 -20.4801 151.322 -1 -20.3000 151.700 1000 -20.4801 151.322 TC -20.5000 151.300 1 -20.1437 151.722 TC 30 1000 13 132
1961356S16149 1962 126 SP EA NOT_NAMED 1961-12-24 00:00:00 TS -20.5269 151.691 main 236 221 O_____P__OP_O_ jtwc_sh SH041962 -20.6000 151.500 -1 -20.5297 151.861 1000 -20.6000 151.500 TC -20.6315 151.482 1 -20.3000 151.900 TC 30 1000 14 133
1961356S16149 1962 126 SP EA NOT_NAMED 1961-12-24 02:00:00 TS -20.8575 152.076 1000 bom main 221 220 P_____O__PP_P_ SH041962 -20.8588 151.902 -1 -21.0000 152.200 1000 -20.8588 151.902 TC -20.8976 151.879 1 -20.6792 152.279 TC 30 1000 15 132
1961356S16149 1962 126 SP EA NOT_NAMED 1961-12-24 03:00:00 TS -21.0245 152.283 main 227 220 P_____P__PP_P_ SH041962 -20.9926 152.120 -1 -21.2122 152.393 1000 -20.9926 152.120 TC -21.0317 152.090 1 -20.8849 152.477 TC 30 1000 16 129
1961356S16149 1962 126 SP EA NOT_NAMED 1961-12-24 06:00:00 TS -21.5159 152.940 main 243 243 O_____P__OP_O_ jtwc_sh SH041962 -21.4000 152.800 -1 -21.7722 153.047 1000 -21.4000 152.800 TC -21.4356 152.760 1 -21.5000 153.100 TC 30 1000 16 128
1961356S16149 1962 126 SP EA NOT_NAMED 1961-12-24 09:00:00 TS -21.9733 153.609 main 293 293 P_____P__PP_P_ SH041962 -21.7998 153.458 -1 -22.2345 153.748 1000 -21.7998 153.458 TC -21.8368 153.449 1 -22.0451 153.765 TC 30 1000 15 126
1961356S16149 1962 126 SP EA NOT_NAMED 1961-12-24 11:00:00 TS -22.2575 154.045 1000 bom main 288 283 P_____O__PO_P_ SH041962 -22.0666 153.889 -1 -22.5000 154.200 1000 -22.0666 153.889 TC -22.1000 153.900 1 -22.3614 154.198 TC 30 1000 15 125
1961356S16149 1962 126 SP EA NOT_NAMED 1961-12-24 12:00:00 TS -22.3920 154.247 main 283 274 O_____P__OP_O_ jtwc_sh SH041962 -22.2000 154.100 -1 -22.6257 154.384 1000 -22.2000 154.100 TC -22.2265 154.099 1 -22.5000 154.400 TC 30 1000 13 125
1961356S16149 1962 126 SP EA NOT_NAMED 1961-12-24 15:00:00 TS -22.7635 154.815 main 270 270 P_____P__PP_P_ SH041962 -22.6072 154.708 -1 -22.9493 154.889 1000 -22.6072 154.708 TC -22.6003 154.680 1 -22.8295 154.916 TC 30 1000 13 125
1961356S16149 1962 126 SP EA NOT_NAMED 1961-12-24 18:00:00 TS -23.0997 155.363 main 285 285 O_____P__OP_O_ jtwc_sh SH041962 -23.0000 155.300 -1 -23.2265 155.373 1000 -23.0000 155.300 TC -22.9711 155.260 1 -23.1000 155.400 TC 30 1000 12 123
1961356S16149 1962 126 SP EA NOT_NAMED 1961-12-24 21:00:00 TS -23.4088 155.909 main 306 306 P_____P__PP_P_ SH041962 -23.3495 155.878 -1 -23.4996 155.897 1000 -23.3495 155.878 TC -23.3455 155.867 1 -23.3843 155.898 TC 30 1000 12 121
1961356S16149 1962 126 SP EA NOT_NAMED 1961-12-24 23:00:00 TS -23.6199 156.302 1000 bom main 332 332 P_____O__PO_P_ SH041962 -23.5799 156.283 -1 -23.7000 156.300 1000 -23.5799 156.283 TC -23.6000 156.300 1 -23.5882 156.280 TC 30 1000 13 120
1961356S16149 1962 126 SP EA NOT_NAMED 1961-12-25 00:00:00 TS -23.7346 156.516 main 345 345 O_____P__OP_O_ jtwc_sh SH041962 -23.7000 156.500 -1 -23.8099 156.524 1000 -23.7000 156.500 TC -23.7293 156.528 1 -23.7000 156.500 TC 30 1000 15 119
1961356S16149 1962 126 SP EA NOT_NAMED 1961-12-25 03:00:00 TS -24.1186 157.265 main 406 406 P_____P__PP_P_ SH041962 -24.0885 157.219 -1 -24.1760 157.281 1000 -24.0885 157.219 TC -24.1245 157.255 1 -24.0852 157.305 TC 30 1000 17 119
1961356S16149 1962 126 SP EA NOT_NAMED 1961-12-25 06:00:00 TS -24.5273 158.110 main 477 477 O_____P__OP_O_ jtwc_sh SH041962 -24.5000 158.000 -1 -24.5823 158.140 1000 -24.5000 158.000 TC -24.5267 158.034 1 -24.5000 158.200 TC 30 1000 18 118
1961356S16149 1962 126 SP EA NOT_NAMED 1961-12-25 09:00:00 TS -24.9429 159.002 main 564 564 ______P___P_P_ SH041962 -1 -25.0107 159.064 1000 TC -24.9312 158.847 1 -24.9056 159.064 TC 30 1000 18 117
1961356S16149 1962 126 SP EA NOT_NAMED 1961-12-25 11:00:00 TS -25.2097 159.586 1000 bom main 624 624 ______O___O_P_ SH041962 -1 -25.3000 159.700 1000 TC -25.2000 159.400 1 -25.1693 159.622 TC 30 1000 18 114
1961356S16149 1962 126 SP EA NOT_NAMED 1961-12-25 12:00:00 TS -25.3000 159.900 main 654 ____________O_ -1 1 -25.3000 159.900 TC 30 1000 18 108

デジタル台風データ・検索

IBTrACS Databaseについて

本データベースは、米国NOAAが公開する1842年以降の世界の熱帯低気圧のベストトラックデータアーカイブInternational Best Track Archive for Climate Stewardship (IBTrACS)を、ウェブで閲覧しやすい形式に変換したものです。

最終更新日:2021-10-08